createdAt,value
2023-02-11T00:01:08.421Z,40.08
2023-02-11T00:03:37.017Z,37.67
2023-02-11T00:06:09.145Z,38.28
2023-02-11T00:08:37.537Z,39.55
2023-02-11T00:11:05.679Z,39.45
2023-02-11T00:13:33.794Z,39.92
2023-02-11T00:16:08.321Z,41.05
2023-02-11T00:18:36.493Z,40.17
2023-02-11T00:21:08.741Z,40.20
2023-02-11T00:23:37.261Z,38.40
2023-02-11T00:26:05.809Z,39.75
2023-02-11T00:28:33.782Z,42.45
2023-02-11T00:31:03.482Z,41.28
2023-02-11T00:33:31.694Z,40.10
2023-02-11T00:36:02.075Z,39.33
2023-02-11T00:38:30.192Z,44.33
2023-02-11T00:40:58.064Z,46.58
2023-02-11T00:43:26.029Z,42.55
2023-02-11T00:45:54.023Z,45.38
2023-02-11T00:48:23.715Z,41.55
2023-02-11T00:50:51.925Z,42.08
2023-02-11T00:53:19.859Z,44.22
2023-02-11T00:55:48.535Z,43.65
2023-02-11T00:58:16.686Z,43.88
2023-02-11T01:00:45.031Z,45.50
2023-02-11T01:03:13.397Z,47.10
2023-02-11T01:05:43.640Z,44.00
2023-02-11T01:08:11.572Z,43.05
2023-02-11T01:10:39.487Z,47.70
2023-02-11T01:13:07.659Z,42.35
2023-02-11T01:15:35.795Z,44.17
2023-02-11T01:18:05.345Z,44.55
2023-02-11T01:20:33.283Z,47.08
2023-02-11T01:23:02.514Z,48.20
2023-02-11T01:25:30.700Z,41.90
2023-02-11T01:27:58.574Z,45.78
2023-02-11T01:30:26.543Z,48.72
2023-02-11T01:32:54.437Z,45.80
2023-02-11T01:35:22.398Z,43.13
2023-02-11T01:37:50.295Z,44.03
2023-02-11T01:40:20.470Z,45.38
2023-02-11T01:42:50.716Z,43.25
2023-02-11T01:45:56.587Z,44.45
2023-02-11T01:48:28.548Z,47.42
2023-02-11T01:51:02.441Z,45.78
2023-02-11T01:53:48.400Z,46.33
2023-02-11T01:56:48.675Z,45.55
2023-02-11T01:59:19.495Z,46.33
2023-02-11T02:01:51.463Z,47.00
2023-02-11T02:04:20.830Z,46.33
2023-02-11T02:06:55.929Z,49.15
2023-02-11T02:09:27.744Z,46.65
2023-02-11T02:11:57.387Z,48.63
2023-02-11T02:14:26.543Z,49.10
2023-02-11T02:16:54.688Z,49.58
2023-02-11T02:19:55.490Z,48.42
2023-02-11T02:23:05.599Z,50.05
2023-02-11T02:26:00.443Z,51.75
2023-02-11T02:28:50.379Z,52.38
2023-02-11T02:31:47.201Z,56.03
2023-02-11T02:34:24.732Z,50.88
2023-02-11T02:37:01.235Z,49.33
2023-02-11T02:39:32.722Z,49.42
2023-02-11T02:42:01.299Z,55.20
2023-02-11T02:44:30.086Z,54.80
2023-02-11T02:46:58.712Z,50.83
2023-02-11T02:49:28.000Z,54.53
2023-02-11T02:52:09.043Z,54.75
2023-02-11T02:55:16.390Z,53.00
2023-02-11T02:58:13.079Z,54.15
2023-02-11T03:00:52.768Z,53.35
2023-02-11T03:03:29.285Z,54.20
2023-02-11T03:06:04.273Z,55.95
2023-02-11T03:08:35.623Z,56.47
2023-02-11T03:11:05.730Z,57.20
2023-02-11T03:13:36.711Z,52.67
2023-02-11T03:16:10.698Z,50.80
2023-02-11T03:18:43.161Z,55.00
2023-02-11T03:21:14.241Z,54.97
2023-02-11T03:23:45.673Z,55.08
2023-02-11T03:26:19.193Z,57.35
2023-02-11T03:28:54.726Z,55.53
2023-02-11T03:31:29.185Z,55.15
2023-02-11T03:34:02.758Z,57.83
2023-02-11T03:36:41.034Z,57.15
2023-02-11T03:39:11.605Z,52.85
2023-02-11T03:41:42.286Z,54.30
2023-02-11T03:44:13.869Z,57.35
2023-02-11T03:46:44.886Z,53.97
2023-02-11T03:49:14.964Z,56.35
2023-02-11T03:51:45.210Z,53.97
2023-02-11T03:54:17.588Z,52.78
2023-02-11T03:56:52.133Z,53.58
2023-02-11T03:59:20.287Z,54.03
2023-02-11T04:01:48.275Z,53.03
2023-02-11T04:04:16.738Z,56.05
2023-02-11T04:06:46.069Z,52.47
2023-02-11T04:09:16.234Z,51.92
2023-02-11T04:11:44.312Z,52.40
2023-02-11T04:14:12.610Z,50.55
2023-02-11T04:16:40.775Z,54.53
2023-02-11T04:19:09.046Z,50.03
2023-02-11T04:21:37.138Z,52.35
2023-02-11T04:24:07.137Z,52.47
2023-02-11T04:26:35.344Z,54.95
2023-02-11T04:29:03.476Z,52.03
2023-02-11T04:31:31.476Z,52.75
2023-02-11T04:33:59.694Z,51.70
2023-02-11T04:36:27.824Z,49.65
2023-02-11T04:38:55.767Z,50.00
2023-02-11T04:41:25.521Z,48.80
2023-02-11T04:43:53.452Z,50.85
2023-02-11T04:46:21.459Z,50.90
2023-02-11T04:48:49.652Z,49.33
2023-02-11T04:51:17.900Z,47.10
2023-02-11T04:53:45.827Z,50.08
2023-02-11T04:56:13.740Z,44.17
2023-02-11T04:58:42.990Z,47.58
2023-02-11T05:01:13.458Z,47.08
2023-02-11T05:03:41.874Z,49.90
2023-02-11T05:06:11.693Z,45.20
2023-02-11T05:08:39.619Z,46.53
2023-02-11T05:11:08.632Z,49.13
2023-02-11T05:13:37.203Z,48.25
2023-02-11T05:16:07.363Z,47.97
2023-02-11T05:18:35.306Z,48.60
2023-02-11T05:21:08.144Z,48.00
2023-02-11T05:23:36.739Z,47.10
2023-02-11T05:26:05.573Z,47.67
2023-02-11T05:28:34.281Z,46.08
2023-02-11T05:31:02.651Z,45.17
2023-02-11T05:33:32.244Z,46.00
2023-02-11T05:36:01.365Z,43.05
2023-02-11T05:38:29.496Z,46.00
2023-02-11T05:40:58.096Z,47.50
2023-02-11T05:43:26.526Z,44.08
2023-02-11T05:45:54.908Z,45.60
2023-02-11T05:48:23.240Z,46.22
2023-02-11T05:50:52.535Z,44.70
2023-02-11T05:53:20.856Z,41.75
2023-02-11T05:55:49.317Z,41.90
2023-02-11T05:58:17.799Z,41.78
2023-02-11T06:00:45.756Z,43.53
2023-02-11T06:03:13.936Z,44.42
2023-02-11T06:05:43.857Z,44.22
2023-02-11T06:08:13.863Z,43.83
2023-02-11T06:10:43.022Z,42.20
2023-02-11T06:13:11.123Z,42.63
2023-02-11T06:15:39.287Z,43.05
2023-02-11T06:18:09.593Z,40.85
2023-02-11T06:20:40.761Z,40.60
2023-02-11T06:23:08.694Z,40.75
2023-02-11T06:25:38.541Z,40.28
2023-02-11T06:28:06.675Z,44.22
2023-02-11T06:30:35.199Z,39.60
2023-02-11T06:33:03.116Z,40.28
2023-02-11T06:35:33.331Z,40.05
2023-02-11T06:38:01.768Z,42.42
2023-02-11T06:40:29.975Z,40.33
2023-02-11T06:42:59.520Z,37.50
2023-02-11T06:45:27.755Z,37.17
2023-02-11T06:47:56.150Z,38.78
2023-02-11T06:50:24.552Z,40.25
2023-02-11T06:52:52.721Z,39.15
2023-02-11T06:55:20.947Z,36.85
2023-02-11T06:57:49.097Z,36.33
2023-02-11T07:00:20.145Z,39.83
2023-02-11T07:02:48.349Z,36.88
2023-02-11T07:05:16.518Z,34.70
2023-02-11T07:07:44.891Z,35.17
2023-02-11T07:10:12.788Z,36.63
2023-02-11T07:12:41.273Z,35.35
2023-02-11T07:15:09.700Z,38.22
2023-02-11T07:17:39.164Z,33.95
2023-02-11T07:20:09.135Z,35.38
2023-02-11T07:22:37.527Z,39.13
2023-02-11T07:25:06.097Z,36.78
2023-02-11T07:27:34.184Z,37.67
2023-02-11T07:30:03.766Z,37.63
2023-02-11T07:32:33.078Z,34.97
2023-02-11T07:35:03.687Z,36.55
2023-02-11T07:37:31.850Z,40.20
2023-02-11T07:40:00.277Z,40.03
2023-02-11T07:42:28.153Z,38.45
2023-02-11T07:44:56.240Z,38.53
2023-02-11T07:47:24.545Z,37.90
2023-02-11T07:49:56.155Z,38.85
2023-02-11T07:52:26.304Z,39.20
2023-02-11T07:54:54.409Z,41.22
2023-02-11T07:57:22.540Z,39.95
2023-02-11T07:59:50.763Z,38.58
2023-02-11T08:02:18.939Z,39.67
2023-02-11T08:04:47.854Z,41.00
2023-02-11T08:07:17.285Z,37.58
2023-02-11T08:09:47.002Z,40.28
2023-02-11T08:12:15.197Z,39.63
2023-02-11T08:14:43.291Z,40.58
2023-02-11T08:17:11.322Z,43.78
2023-02-11T08:19:40.378Z,42.33
2023-02-11T08:22:08.637Z,41.53
2023-02-11T08:24:36.835Z,42.60
2023-02-11T08:27:06.242Z,44.15
2023-02-11T08:29:34.470Z,39.10
2023-02-11T08:32:02.651Z,40.22
2023-02-11T08:34:30.781Z,45.22
2023-02-11T08:36:58.904Z,42.63
2023-02-11T08:39:26.863Z,45.25
2023-02-11T08:41:56.988Z,44.65
2023-02-11T08:44:27.256Z,47.03
2023-02-11T08:46:55.721Z,46.55
2023-02-11T08:49:24.165Z,42.58
2023-02-11T08:51:54.120Z,46.60
2023-02-11T08:54:22.471Z,45.63
2023-02-11T08:56:52.942Z,45.03
2023-02-11T08:59:21.553Z,46.40
2023-02-11T09:01:51.741Z,48.47
2023-02-11T09:04:19.941Z,44.53
2023-02-11T09:06:48.460Z,48.13
2023-02-11T09:09:17.226Z,44.85
2023-02-11T09:11:46.776Z,46.88
2023-02-11T09:14:19.500Z,44.08
2023-02-11T09:16:48.246Z,44.22
2023-02-11T09:19:19.083Z,48.30
2023-02-11T09:21:47.774Z,45.67
2023-02-11T09:24:15.707Z,44.88
2023-02-11T09:26:44.648Z,43.95
2023-02-11T09:29:14.304Z,46.30
2023-02-11T09:31:42.734Z,43.90
2023-02-11T09:34:12.557Z,49.25
2023-02-11T09:36:42.957Z,45.08
2023-02-11T09:39:13.942Z,42.03
2023-02-11T09:42:11.731Z,45.90
2023-02-11T09:44:40.819Z,54.33
2023-02-11T09:47:22.963Z,48.78
2023-02-11T09:49:54.882Z,48.25
2023-02-11T09:52:32.842Z,47.47
2023-02-11T09:55:03.559Z,46.72
2023-02-11T09:57:34.508Z,44.75
2023-02-11T10:00:04.425Z,48.72
2023-02-11T10:02:46.316Z,47.65
2023-02-11T10:05:25.129Z,46.25
2023-02-11T10:08:02.557Z,47.40
2023-02-11T10:10:47.233Z,47.90
2023-02-11T10:13:37.165Z,48.63
2023-02-11T10:16:15.189Z,51.13
2023-02-11T10:19:11.334Z,49.17
2023-02-11T10:21:48.561Z,46.42
2023-02-11T10:24:18.888Z,46.45
2023-02-11T10:26:47.462Z,44.40
2023-02-11T10:29:26.262Z,44.15
2023-02-11T10:31:58.131Z,49.00
2023-02-11T10:34:26.915Z,48.30
2023-02-11T10:36:55.555Z,50.47
2023-02-11T10:39:27.490Z,49.13
2023-02-11T10:41:58.987Z,50.20
2023-02-11T10:44:31.586Z,47.42
2023-02-11T10:47:04.321Z,45.47
2023-02-11T10:49:39.221Z,46.22
2023-02-11T10:52:25.736Z,47.22
2023-02-11T10:55:04.041Z,43.05
2023-02-11T10:57:39.676Z,45.67
2023-02-11T11:00:28.769Z,48.70
2023-02-11T11:02:59.758Z,44.15
2023-02-11T11:05:32.409Z,45.10
2023-02-11T11:08:02.056Z,45.97
2023-02-11T11:10:43.168Z,47.38
2023-02-11T11:13:29.949Z,50.72
2023-02-11T11:16:18.381Z,49.20
2023-02-11T11:18:48.252Z,46.58
2023-02-11T11:21:20.924Z,46.45
2023-02-11T11:23:52.350Z,48.17
2023-02-11T11:26:23.126Z,48.83
2023-02-11T11:29:01.480Z,51.05
2023-02-11T11:31:33.193Z,46.15
2023-02-11T11:34:03.451Z,45.00
2023-02-11T11:36:38.143Z,44.78
2023-02-11T11:39:24.687Z,43.38
2023-02-11T11:41:57.972Z,45.92
2023-02-11T11:44:32.273Z,46.83
2023-02-11T11:47:26.376Z,45.88
2023-02-11T11:50:26.877Z,43.72
2023-02-11T11:53:01.531Z,48.70
2023-02-11T11:55:36.057Z,46.03
2023-02-11T11:58:06.877Z,46.78
2023-02-11T12:00:42.103Z,44.33
2023-02-11T12:03:48.773Z,46.42
2023-02-11T12:06:32.247Z,43.97
2023-02-11T12:09:18.058Z,43.00
2023-02-11T12:12:14.689Z,46.17
2023-02-11T12:14:50.242Z,46.40
2023-02-11T12:17:35.793Z,60.13
2023-02-11T12:20:27.150Z,60.38
2023-02-11T12:23:15.023Z,61.88
2023-02-11T12:25:50.279Z,57.72
2023-02-11T12:28:32.266Z,67.45
2023-02-11T12:31:23.672Z,65.88
2023-02-11T12:34:08.826Z,60.13
2023-02-11T12:36:48.838Z,61.80
2023-02-11T12:39:27.019Z,63.95
2023-02-11T12:42:25.347Z,62.63
2023-02-11T12:45:07.044Z,63.03
2023-02-11T12:47:46.503Z,60.33
2023-02-11T12:50:23.202Z,61.10
2023-02-11T12:53:09.686Z,63.00
2023-02-11T12:55:41.449Z,61.40
2023-02-11T12:58:16.320Z,60.05
2023-02-11T13:00:49.602Z,62.88
2023-02-11T13:03:23.863Z,54.63
2023-02-11T13:05:55.070Z,57.30
2023-02-11T13:08:30.020Z,58.25
2023-02-11T13:11:02.234Z,55.60
2023-02-11T13:13:34.161Z,56.90
2023-02-11T13:16:07.295Z,54.15
2023-02-11T13:18:45.726Z,52.70
2023-02-11T13:21:27.746Z,56.30
2023-02-11T13:24:02.776Z,50.53
2023-02-11T13:26:46.042Z,57.42
2023-02-11T13:41:01.823Z,42.30
2023-02-11T13:44:17.615Z,41.65
2023-02-11T13:47:57.984Z,34.30
2023-02-11T13:54:27.955Z,38.90
2023-02-11T13:58:10.097Z,36.58
2023-02-11T14:08:39.850Z,36.80
2023-02-11T14:18:08.843Z,33.72
2023-02-11T14:21:14.924Z,35.22
2023-02-11T14:25:00.201Z,30.98
2023-02-11T14:28:05.930Z,31.58
2023-02-11T14:34:59.061Z,31.73
2023-02-11T14:38:22.826Z,27.52
2023-02-11T14:41:13.531Z,30.05
2023-02-11T14:43:52.873Z,33.70
2023-02-11T14:47:08.516Z,30.48
2023-02-11T14:57:02.949Z,30.20
2023-02-11T15:03:45.949Z,33.28
2023-02-11T15:12:54.789Z,29.27
2023-02-11T15:18:22.803Z,29.85
2023-02-11T15:21:16.224Z,28.88
2023-02-11T15:29:54.330Z,30.38
2023-02-11T15:32:32.096Z,31.92
2023-02-11T15:35:00.801Z,28.65
2023-02-11T15:37:52.154Z,30.65
2023-02-11T15:40:24.993Z,28.45
2023-02-11T15:43:03.333Z,30.42
2023-02-11T15:45:41.847Z,31.27
2023-02-11T15:48:17.497Z,31.70
2023-02-11T15:50:55.885Z,29.33
2023-02-11T15:53:31.413Z,31.40
2023-02-11T15:56:17.715Z,27.92
2023-02-11T15:59:00.015Z,29.30
2023-02-11T16:01:36.798Z,31.13
2023-02-11T16:04:24.805Z,27.90
2023-02-11T16:07:07.719Z,27.92
2023-02-11T16:09:41.110Z,28.40
2023-02-11T16:12:40.693Z,28.40
2023-02-11T16:15:37.312Z,26.85
2023-02-11T16:18:36.706Z,26.80
2023-02-11T16:21:28.039Z,25.88
2023-02-11T16:24:09.264Z,27.77
2023-02-11T16:26:44.649Z,28.48
2023-02-11T16:29:23.140Z,24.15
2023-02-11T16:31:51.608Z,24.80
2023-02-11T16:34:22.130Z,26.65
2023-02-11T16:36:54.814Z,28.20
2023-02-11T16:39:25.922Z,23.60
2023-02-11T16:41:56.882Z,28.02
2023-02-11T16:44:26.790Z,28.05
2023-02-11T16:46:57.172Z,28.30
2023-02-11T16:49:29.060Z,28.15
2023-02-11T16:52:02.301Z,26.20
2023-02-11T16:54:31.789Z,25.17
2023-02-11T16:57:01.578Z,28.00
2023-02-11T16:59:30.097Z,28.75
2023-02-11T17:01:59.628Z,26.65
2023-02-11T17:04:44.849Z,28.05
2023-02-11T17:07:38.657Z,26.17
2023-02-11T17:10:21.913Z,26.35
2023-02-11T17:13:23.799Z,27.33
2023-02-11T17:16:13.025Z,27.42
2023-02-11T17:18:48.336Z,28.30
2023-02-11T17:21:18.658Z,26.63
2023-02-11T17:23:49.277Z,26.80
2023-02-11T17:26:40.994Z,28.05
2023-02-11T17:29:15.354Z,27.83
2023-02-11T17:31:47.377Z,26.63
2023-02-11T17:34:30.106Z,25.85
2023-02-11T17:37:01.930Z,29.63
2023-02-11T17:39:31.943Z,27.25
2023-02-11T17:42:03.522Z,26.38
2023-02-11T17:44:31.939Z,27.92
2023-02-11T17:47:13.862Z,25.20
2023-02-11T17:49:44.047Z,24.77
2023-02-11T17:52:24.548Z,27.50
2023-02-11T17:54:56.839Z,25.98
2023-02-11T17:57:26.870Z,27.15
2023-02-11T17:59:58.019Z,28.42
2023-02-11T18:02:32.071Z,28.40
2023-02-11T18:05:01.978Z,27.45
2023-02-11T18:07:34.012Z,27.08
2023-02-11T18:10:07.863Z,25.98
2023-02-11T18:12:41.213Z,26.75
2023-02-11T18:15:11.791Z,26.15
2023-02-11T18:17:40.472Z,27.65
2023-02-11T18:20:10.044Z,27.83
2023-02-11T18:22:40.402Z,28.88
2023-02-11T18:25:13.003Z,26.90
2023-02-11T18:27:41.540Z,31.45
2023-02-11T18:30:16.883Z,26.45
2023-02-11T18:32:45.356Z,27.15
2023-02-11T18:35:15.226Z,27.05
2023-02-11T18:37:44.226Z,26.33
2023-02-11T18:40:17.182Z,28.35
2023-02-11T18:42:47.291Z,27.35
2023-02-11T18:45:16.267Z,26.00
2023-02-11T18:47:44.867Z,26.90
2023-02-11T18:50:15.656Z,31.85
2023-02-11T18:52:49.484Z,28.30
2023-02-11T18:55:35.221Z,26.58
2023-02-11T18:58:07.503Z,28.15
2023-02-11T19:00:36.700Z,30.90
2023-02-11T19:03:05.291Z,31.17
2023-02-11T19:05:35.620Z,26.42
2023-02-11T19:08:05.750Z,26.45
2023-02-11T19:10:49.271Z,28.92
2023-02-11T19:13:21.416Z,27.67
2023-02-11T19:15:51.694Z,28.40
2023-02-11T19:18:20.229Z,27.52
2023-02-11T19:20:48.493Z,26.63
2023-02-11T19:23:16.706Z,25.52
2023-02-11T19:25:50.605Z,26.23
2023-02-11T19:28:19.461Z,23.88
2023-02-11T19:30:47.715Z,23.80
2023-02-11T19:33:16.028Z,25.85
2023-02-11T19:35:44.564Z,26.35
2023-02-11T19:38:13.990Z,27.80
2023-02-11T19:40:42.571Z,28.90
2023-02-11T19:43:12.669Z,27.10
2023-02-11T19:45:40.659Z,24.15
2023-02-11T19:48:08.966Z,26.08
2023-02-11T19:50:37.596Z,27.83
2023-02-11T19:53:06.447Z,23.65
2023-02-11T19:55:36.280Z,25.98
2023-02-11T19:58:04.725Z,25.48
2023-02-11T20:00:34.842Z,26.42
2023-02-11T20:03:03.268Z,26.05
2023-02-11T20:05:32.861Z,28.08
2023-02-11T20:08:01.220Z,25.35
2023-02-11T20:10:29.895Z,23.27
2023-02-11T20:12:59.274Z,23.25
2023-02-11T20:15:27.962Z,24.52
2023-02-11T20:17:58.017Z,24.52
2023-02-11T20:20:38.360Z,24.38
2023-02-11T20:23:07.152Z,22.85
2023-02-11T20:25:39.394Z,23.58
2023-02-11T20:28:07.577Z,23.40
2023-02-11T20:30:37.036Z,22.73
2023-02-11T20:33:07.055Z,22.10
2023-02-11T20:35:35.075Z,23.17
2023-02-11T20:38:03.617Z,22.65
2023-02-11T20:40:31.988Z,24.27
2023-02-11T20:43:01.363Z,25.50
2023-02-11T20:45:29.646Z,26.05
2023-02-11T20:48:03.237Z,24.10
2023-02-11T20:50:34.248Z,21.92
2023-02-11T20:53:02.504Z,21.75
2023-02-11T20:55:31.476Z,21.70
2023-02-11T20:57:59.733Z,22.92
2023-02-11T21:00:27.999Z,21.80
2023-02-11T21:02:56.370Z,22.08
2023-02-11T21:05:25.016Z,21.88
2023-02-11T21:07:56.183Z,23.35
2023-02-11T21:10:24.390Z,22.08
2023-02-11T21:12:54.501Z,20.52
2023-02-11T21:15:24.112Z,22.40
2023-02-11T21:17:52.593Z,21.15
2023-02-11T21:20:21.296Z,22.67
2023-02-11T21:22:49.480Z,24.20
2023-02-11T21:25:19.889Z,22.45
2023-02-11T21:27:48.105Z,22.80
2023-02-11T21:30:17.700Z,25.17
2023-02-11T21:32:45.688Z,22.10
2023-02-11T21:35:13.889Z,22.00
2023-02-11T21:37:42.512Z,21.67
2023-02-11T21:40:11.339Z,22.33
2023-02-11T21:42:41.046Z,22.95
2023-02-11T21:45:10.254Z,23.83
2023-02-11T21:47:38.166Z,22.25
2023-02-11T21:50:07.273Z,24.05
2023-02-11T21:52:35.336Z,24.63
2023-02-11T21:55:04.923Z,24.33
2023-02-11T21:57:33.132Z,22.63
2023-02-11T22:00:03.220Z,23.63
2023-02-11T22:02:31.624Z,21.55
2023-02-11T22:04:59.841Z,20.60
2023-02-11T22:07:28.520Z,22.67
2023-02-11T22:09:56.961Z,23.00
2023-02-11T22:12:25.329Z,23.23
2023-02-11T22:14:53.377Z,20.67
2023-02-11T22:17:23.383Z,21.60
2023-02-11T22:19:51.859Z,21.17
2023-02-11T22:22:20.072Z,23.02
2023-02-11T22:24:48.576Z,21.33
2023-02-11T22:27:20.119Z,22.27
2023-02-11T22:29:49.030Z,24.02
2023-02-11T22:32:18.082Z,20.42
2023-02-11T22:34:48.197Z,21.55
2023-02-11T22:37:16.537Z,20.08
2023-02-11T22:39:44.814Z,19.17
2023-02-11T22:42:13.353Z,20.45
2023-02-11T22:44:41.865Z,21.77
2023-02-11T22:47:10.196Z,19.13
2023-02-11T22:49:39.551Z,22.00
2023-02-11T22:52:09.775Z,19.13
2023-02-11T22:54:38.092Z,18.23
2023-02-11T22:57:06.249Z,19.35
2023-02-11T22:59:34.544Z,20.23
2023-02-11T23:02:02.947Z,18.20
2023-02-11T23:04:31.253Z,18.52
2023-02-11T23:06:59.553Z,19.55
2023-02-11T23:09:29.180Z,18.58
2023-02-11T23:11:57.949Z,20.05
2023-02-11T23:14:26.237Z,18.35
2023-02-11T23:16:54.680Z,19.63
2023-02-11T23:19:25.030Z,20.05
2023-02-11T23:21:53.948Z,17.65
2023-02-11T23:24:22.354Z,17.42
2023-02-11T23:26:52.561Z,19.33
2023-02-11T23:29:20.553Z,18.77
2023-02-11T23:31:51.346Z,20.45
2023-02-11T23:34:25.108Z,18.60
2023-02-11T23:36:53.776Z,19.42
2023-02-11T23:39:21.991Z,17.80
2023-02-11T23:41:58.874Z,19.77
2023-02-11T23:44:27.154Z,18.88
2023-02-11T23:46:55.682Z,18.42
2023-02-11T23:49:24.231Z,18.67
2023-02-11T23:51:52.577Z,17.98
2023-02-11T23:54:20.803Z,19.27
2023-02-11T23:56:49.357Z,19.95
2023-02-11T23:59:19.180Z,18.80
